createdAt,value
2018-02-16T00:00:08.703Z,27.57
2018-02-16T00:02:36.301Z,32.33
2018-02-16T00:05:03.889Z,32.07
2018-02-16T00:07:32.272Z,31.07
2018-02-16T00:09:59.848Z,30.27
2018-02-16T00:12:27.470Z,35.17
2018-02-16T00:14:55.819Z,31.43
2018-02-16T00:17:23.417Z,28.90
2018-02-16T00:19:51.789Z,30.97
2018-02-16T00:22:20.158Z,32.43
2018-02-16T00:24:47.770Z,33.00
2018-02-16T00:27:15.351Z,31.17
2018-02-16T00:29:42.942Z,32.40
2018-02-16T00:32:10.559Z,30.40
2018-02-16T00:34:38.139Z,35.67
2018-02-16T00:37:05.765Z,30.67
2018-02-16T00:39:33.341Z,29.90
2018-02-16T00:42:00.926Z,31.87
2018-02-16T00:44:28.569Z,33.47
2018-02-16T00:46:56.162Z,31.87
2018-02-16T00:49:23.786Z,30.07
2018-02-16T00:51:51.353Z,32.07
2018-02-16T00:54:18.973Z,36.93
2018-02-16T00:56:46.581Z,32.90
2018-02-16T00:59:14.169Z,34.23
2018-02-16T01:01:42.558Z,33.57
2018-02-16T01:04:10.167Z,29.37
2018-02-16T01:06:37.784Z,31.47
2018-02-16T01:09:05.396Z,33.53
2018-02-16T01:11:32.979Z,31.40
2018-02-16T01:14:01.379Z,39.40
2018-02-16T01:16:28.986Z,36.33
2018-02-16T01:18:56.568Z,32.43
2018-02-16T01:21:24.952Z,37.77
2018-02-16T01:23:52.531Z,38.60
2018-02-16T01:26:20.913Z,33.17
2018-02-16T01:28:48.485Z,30.07
2018-02-16T01:31:16.068Z,40.83
2018-02-16T01:33:43.675Z,39.83
2018-02-16T01:36:12.014Z,44.83
2018-02-16T01:38:40.403Z,35.60
2018-02-16T01:41:07.983Z,21.53
2018-02-16T01:43:35.575Z,38.73
2018-02-16T01:46:03.242Z,37.43
2018-02-16T01:48:30.839Z,32.40
2018-02-16T01:50:58.443Z,36.53
2018-02-16T01:53:26.032Z,32.37
2018-02-16T01:55:53.661Z,28.67
2018-02-16T01:58:22.009Z,35.97
2018-02-16T02:00:49.597Z,34.53
2018-02-16T02:03:17.977Z,37.37
2018-02-16T02:05:46.327Z,38.30
2018-02-16T02:08:13.949Z,37.53
2018-02-16T02:10:41.533Z,41.90
2018-02-16T02:13:09.170Z,35.57
2018-02-16T02:15:36.776Z,41.17
2018-02-16T02:18:05.119Z,44.60
2018-02-16T02:20:32.717Z,47.17
2018-02-16T02:23:01.179Z,38.83
2018-02-16T02:25:28.837Z,41.37
2018-02-16T02:27:56.416Z,46.23
2018-02-16T02:30:24.777Z,36.43
2018-02-16T02:32:52.387Z,42.17
2018-02-16T02:35:19.989Z,41.87
2018-02-16T02:37:47.620Z,30.97
2018-02-16T02:40:15.227Z,42.00
2018-02-16T02:42:43.635Z,40.37
2018-02-16T02:45:11.223Z,47.57
2018-02-16T02:47:38.811Z,40.70
2018-02-16T02:50:06.462Z,51.83
2018-02-16T02:52:34.050Z,50.20
2018-02-16T02:55:02.453Z,46.43
2018-02-16T02:57:30.059Z,42.73
2018-02-16T02:59:57.680Z,42.97
2018-02-16T03:02:25.301Z,53.70
2018-02-16T03:04:52.896Z,45.20
2018-02-16T03:07:20.521Z,48.37
2018-02-16T03:09:48.126Z,48.30
2018-02-16T03:12:15.724Z,43.07
2018-02-16T03:14:43.347Z,47.87
2018-02-16T03:17:10.934Z,49.10
2018-02-16T03:19:38.565Z,52.17
2018-02-16T03:22:06.416Z,56.43
2018-02-16T03:24:34.031Z,47.90
2018-02-16T03:27:01.625Z,48.30
2018-02-16T03:29:29.988Z,55.20
2018-02-16T03:31:57.595Z,46.20
2018-02-16T03:34:25.185Z,56.47
2018-02-16T03:36:52.798Z,51.33
2018-02-16T03:39:20.383Z,43.33
2018-02-16T03:41:47.967Z,58.37
2018-02-16T03:44:15.600Z,61.43
2018-02-16T03:46:43.179Z,56.87
2018-02-16T03:49:10.797Z,56.63
2018-02-16T03:51:38.383Z,57.73
2018-02-16T03:54:06.340Z,56.03
2018-02-16T03:56:33.917Z,57.17
2018-02-16T03:59:01.709Z,54.80
2018-02-16T04:01:29.334Z,57.10
2018-02-16T04:03:56.912Z,60.23
2018-02-16T04:06:24.536Z,63.83
2018-02-16T04:08:52.168Z,67.47
2018-02-16T04:11:20.512Z,51.30
2018-02-16T04:13:48.922Z,67.47
2018-02-16T04:16:17.277Z,54.63
2018-02-16T04:18:44.886Z,58.27
2018-02-16T04:21:12.473Z,64.93
2018-02-16T04:23:40.095Z,58.80
2018-02-16T04:26:07.675Z,56.47
2018-02-16T04:28:35.282Z,59.37
2018-02-16T04:31:03.073Z,55.33
2018-02-16T04:33:30.720Z,49.07
2018-02-16T04:35:59.128Z,50.50
2018-02-16T04:38:26.725Z,60.20
2018-02-16T04:40:54.314Z,51.60
2018-02-16T04:43:22.689Z,46.27
2018-02-16T04:45:50.286Z,44.30
2018-02-16T04:48:17.900Z,52.47
2018-02-16T04:50:45.500Z,64.80
2018-02-16T04:53:13.093Z,40.87
2018-02-16T04:55:40.726Z,52.13
2018-02-16T04:58:08.317Z,51.57
2018-02-16T05:00:35.891Z,60.70
2018-02-16T05:03:03.530Z,54.50
2018-02-16T05:05:31.110Z,54.23
2018-02-16T05:07:58.732Z,48.97
2018-02-16T05:10:26.315Z,51.20
2018-02-16T05:12:53.935Z,46.77
2018-02-16T05:15:21.527Z,67.50
2018-02-16T05:17:49.104Z,54.60
2018-02-16T05:20:16.720Z,59.23
2018-02-16T05:22:44.324Z,49.83
2018-02-16T05:25:11.940Z,56.40
2018-02-16T05:27:39.517Z,41.93
2018-02-16T05:30:07.111Z,48.67
2018-02-16T05:32:34.731Z,50.90
2018-02-16T05:35:02.316Z,61.73
2018-02-16T05:37:30.758Z,53.10
2018-02-16T05:39:58.368Z,56.63
2018-02-16T05:42:25.963Z,50.30
2018-02-16T05:44:53.565Z,45.60
2018-02-16T05:47:21.158Z,59.83
2018-02-16T05:49:48.781Z,43.73
2018-02-16T05:52:16.365Z,49.50
2018-02-16T05:54:43.957Z,50.83
2018-02-16T05:57:12.460Z,36.53
2018-02-16T05:59:40.058Z,45.80
2018-02-16T06:02:07.704Z,50.03
2018-02-16T06:04:35.274Z,53.97
2018-02-16T06:07:02.866Z,47.70
2018-02-16T06:09:30.477Z,50.70
2018-02-16T06:11:58.043Z,52.97
2018-02-16T06:14:25.644Z,52.73
2018-02-16T06:16:53.238Z,62.33
2018-02-16T06:19:20.875Z,43.53
2018-02-16T06:21:49.258Z,48.90
2018-02-16T06:24:16.857Z,42.63
2018-02-16T06:26:44.475Z,45.00
2018-02-16T06:29:12.821Z,44.47
2018-02-16T06:31:40.437Z,43.33
2018-02-16T06:34:08.132Z,47.97
2018-02-16T06:36:35.739Z,41.83
2018-02-16T06:39:04.175Z,46.07
2018-02-16T06:41:31.751Z,55.50
2018-02-16T06:43:59.370Z,43.23
2018-02-16T06:46:26.962Z,57.43
2018-02-16T06:48:54.568Z,54.93
2018-02-16T06:51:22.160Z,54.87
2018-02-16T06:53:49.736Z,63.17
2018-02-16T06:56:18.131Z,44.93
2018-02-16T06:58:45.713Z,47.43
2018-02-16T07:01:14.083Z,48.93
2018-02-16T07:03:42.428Z,56.00
2018-02-16T07:06:10.005Z,54.00
2018-02-16T07:08:37.704Z,46.97
2018-02-16T07:11:05.374Z,43.83
2018-02-16T07:13:32.990Z,48.27
2018-02-16T07:16:00.574Z,41.70
2018-02-16T07:18:28.187Z,44.27
2018-02-16T07:20:55.768Z,38.90
2018-02-16T07:23:23.366Z,36.33
2018-02-16T07:25:50.973Z,36.30
2018-02-16T07:28:18.556Z,43.30
2018-02-16T07:30:46.956Z,49.07
2018-02-16T07:33:14.529Z,44.57
2018-02-16T07:35:42.402Z,39.87
2018-02-16T07:38:09.999Z,43.70
2018-02-16T07:40:37.599Z,49.03
2018-02-16T07:43:05.218Z,38.37
2018-02-16T07:45:32.820Z,37.60
2018-02-16T07:48:00.453Z,38.20
2018-02-16T07:50:28.021Z,42.67
2018-02-16T07:52:56.376Z,45.07
2018-02-16T07:55:23.977Z,36.33
2018-02-16T07:57:51.562Z,38.67
2018-02-16T08:00:19.196Z,29.27
2018-02-16T08:02:46.794Z,34.43
2018-02-16T08:05:14.383Z,31.30
2018-02-16T08:07:41.991Z,29.17
2018-02-16T08:10:09.647Z,31.60
2018-02-16T08:12:37.258Z,41.63
2018-02-16T08:15:05.027Z,25.43
2018-02-16T08:17:32.636Z,26.67
2018-02-16T08:20:00.217Z,24.93
2018-02-16T08:22:27.855Z,24.40
2018-02-16T08:24:55.435Z,18.77
2018-02-16T08:27:23.034Z,22.57
2018-02-16T08:29:51.404Z,23.27
2018-02-16T08:32:19.008Z,24.23
2018-02-16T08:34:46.633Z,25.63
2018-02-16T08:37:14.227Z,20.97
2018-02-16T08:39:41.813Z,20.60
2018-02-16T08:42:09.437Z,18.40
2018-02-16T08:44:37.061Z,20.47
2018-02-16T08:47:04.680Z,22.23
2018-02-16T08:49:32.284Z,16.20
2018-02-16T08:52:00.654Z,18.90
2018-02-16T08:54:28.288Z,17.53
2018-02-16T08:56:55.881Z,21.20
2018-02-16T08:59:23.481Z,53.03
2018-02-16T09:01:51.057Z,120.33
2018-02-16T09:04:18.705Z,23.33
2018-02-16T09:06:46.304Z,18.27
2018-02-16T09:09:13.884Z,11.77
2018-02-16T09:11:41.489Z,14.40
2018-02-16T09:14:09.068Z,8.67
2018-02-16T09:16:36.683Z,11.07
2018-02-16T09:19:05.612Z,17.00
2018-02-16T09:21:33.199Z,10.00
2018-02-16T09:24:00.816Z,17.53
2018-02-16T09:26:28.397Z,11.90
2018-02-16T09:28:56.009Z,7.00
2018-02-16T09:31:24.380Z,9.80
2018-02-16T09:33:52.754Z,7.50
2018-02-16T09:36:21.110Z,7.40
2018-02-16T09:38:50.735Z,7.07
2018-02-16T09:41:18.341Z,7.27
2018-02-16T09:43:45.921Z,8.60
2018-02-16T09:46:13.543Z,8.10
2018-02-16T09:48:41.115Z,6.90
2018-02-16T09:51:08.688Z,9.10
2018-02-16T09:53:36.296Z,10.50
2018-02-16T09:56:04.177Z,6.80
2018-02-16T09:58:32.539Z,14.40
2018-02-16T10:01:00.118Z,12.83
2018-02-16T10:03:28.514Z,9.13
2018-02-16T10:05:56.084Z,6.37
2018-02-16T10:08:23.670Z,10.90
2018-02-16T10:10:51.276Z,8.90
2018-02-16T10:13:18.871Z,9.33
2018-02-16T10:15:46.488Z,10.90
2018-02-16T10:18:14.871Z,13.87
2018-02-16T10:20:42.465Z,13.17
2018-02-16T10:23:10.078Z,8.47
2018-02-16T10:25:38.442Z,12.80
2018-02-16T10:28:06.041Z,9.83
2018-02-16T10:30:33.628Z,10.30
2018-02-16T10:33:01.246Z,8.30
2018-02-16T10:35:29.600Z,8.80
2018-02-16T10:37:57.193Z,15.00
2018-02-16T10:40:24.796Z,8.10
2018-02-16T10:42:52.385Z,13.63
2018-02-16T10:45:20.809Z,7.90
2018-02-16T10:47:48.398Z,11.10
2018-02-16T10:50:16.066Z,15.80
2018-02-16T10:52:43.682Z,7.13
2018-02-16T10:55:11.271Z,6.23
2018-02-16T10:57:38.889Z,17.70
2018-02-16T11:00:06.475Z,13.20
2018-02-16T11:02:39.647Z,11.90
2018-02-16T11:05:13.785Z,9.70
2018-02-16T11:07:47.146Z,12.10
2018-02-16T11:10:14.775Z,20.23
2018-02-16T11:12:42.405Z,11.67
2018-02-16T11:15:09.985Z,18.83
2018-02-16T11:17:37.568Z,21.43
2018-02-16T11:20:05.945Z,16.27
2018-02-16T11:22:34.289Z,14.30
2018-02-16T11:25:02.039Z,13.80
2018-02-16T11:27:29.613Z,13.23
2018-02-16T11:29:57.219Z,19.73
2018-02-16T11:32:25.581Z,19.97
2018-02-16T11:34:53.933Z,14.73
2018-02-16T11:37:21.549Z,16.50
2018-02-16T11:39:49.130Z,18.00
2018-02-16T11:42:16.738Z,9.90
2018-02-16T11:44:44.314Z,20.27
2018-02-16T11:47:12.718Z,19.73
2018-02-16T11:49:40.368Z,16.83
2018-02-16T11:52:07.960Z,17.53
2018-02-16T11:54:35.584Z,29.70
2018-02-16T11:57:03.274Z,17.93
2018-02-16T11:59:30.891Z,19.83
2018-02-16T12:01:59.282Z,20.40
2018-02-16T12:04:26.855Z,20.20
2018-02-16T12:06:54.456Z,25.30
2018-02-16T12:09:22.031Z,20.87
2018-02-16T12:11:49.648Z,16.70
2018-02-16T12:14:17.220Z,23.63
2018-02-16T12:16:45.569Z,18.50
2018-02-16T12:19:13.184Z,16.87
2018-02-16T12:21:40.750Z,16.53
2018-02-16T12:24:09.120Z,18.33
2018-02-16T12:26:36.688Z,21.90
2018-02-16T12:29:05.059Z,24.33
2018-02-16T12:31:32.666Z,17.57
2018-02-16T12:34:00.313Z,17.30
2018-02-16T12:36:27.926Z,25.27
2018-02-16T12:38:55.511Z,19.13
2018-02-16T12:41:23.888Z,18.93
2018-02-16T12:43:52.227Z,17.33
2018-02-16T12:46:19.801Z,16.93
2018-02-16T12:48:47.403Z,14.47
2018-02-16T12:51:14.987Z,17.57
2018-02-16T12:53:42.591Z,31.13
2018-02-16T12:56:10.163Z,14.10
2018-02-16T12:58:38.578Z,12.87
2018-02-16T13:01:06.174Z,16.20
2018-02-16T13:03:33.784Z,18.27
2018-02-16T13:06:01.405Z,17.03
2018-02-16T13:08:29.001Z,17.93
2018-02-16T13:10:56.599Z,13.07
2018-02-16T13:13:24.226Z,14.97
2018-02-16T13:15:51.814Z,16.50
2018-02-16T13:18:19.443Z,9.90
2018-02-16T13:20:47.039Z,7.07
2018-02-16T13:23:14.621Z,17.17
2018-02-16T13:25:42.241Z,16.73
2018-02-16T13:28:09.842Z,11.87
2018-02-16T13:30:37.419Z,14.60
2018-02-16T13:33:09.122Z,15.30
2018-02-16T13:35:37.479Z,19.83
2018-02-16T13:38:05.120Z,16.80
2018-02-16T13:40:33.476Z,19.10
2018-02-16T13:43:01.118Z,13.00
2018-02-16T13:45:28.707Z,12.60
2018-02-16T13:47:57.063Z,13.73
2018-02-16T13:50:24.684Z,14.33
2018-02-16T13:52:52.263Z,19.30
2018-02-16T13:55:19.894Z,15.73
2018-02-16T13:57:47.546Z,14.33
2018-02-16T14:00:15.176Z,17.37
2018-02-16T14:02:42.769Z,14.17
2018-02-16T14:05:10.363Z,15.27
2018-02-16T14:07:37.978Z,14.70
2018-02-16T14:10:06.357Z,11.20
2018-02-16T14:12:34.766Z,17.27
2018-02-16T14:15:02.371Z,11.50
2018-02-16T14:17:29.970Z,16.43
2018-02-16T14:19:57.584Z,14.10
2018-02-16T14:22:25.169Z,11.60
2018-02-16T14:24:53.545Z,13.73
2018-02-16T14:27:21.925Z,14.60
2018-02-16T14:29:50.328Z,14.57
2018-02-16T14:32:17.911Z,15.77
2018-02-16T14:34:45.506Z,15.57
2018-02-16T14:37:13.157Z,10.10
2018-02-16T14:39:40.750Z,14.80
2018-02-16T14:42:09.152Z,12.73
2018-02-16T14:44:36.737Z,14.60
2018-02-16T14:47:04.349Z,12.53
2018-02-16T14:49:31.972Z,10.07
2018-02-16T14:51:59.544Z,13.93
2018-02-16T14:54:27.175Z,11.43
2018-02-16T14:56:54.764Z,11.10
2018-02-16T14:59:22.393Z,11.80
2018-02-16T15:01:49.979Z,20.53
2018-02-16T15:04:17.568Z,12.20
2018-02-16T15:06:45.948Z,17.37
2018-02-16T15:09:13.565Z,14.60
2018-02-16T15:11:41.178Z,21.60
2018-02-16T15:14:08.769Z,13.63
2018-02-16T15:16:36.359Z,16.93
2018-02-16T15:19:03.970Z,19.53
2018-02-16T15:21:31.563Z,21.23
2018-02-16T15:23:59.175Z,12.70
2018-02-16T15:26:26.756Z,12.37
2018-02-16T15:28:54.390Z,17.33
2018-02-16T15:31:21.992Z,14.87
2018-02-16T15:33:49.611Z,14.67
2018-02-16T15:36:17.243Z,12.30
2018-02-16T15:38:44.840Z,21.93
2018-02-16T15:41:12.476Z,21.10
2018-02-16T15:43:40.886Z,17.40
2018-02-16T15:46:08.503Z,10.83
2018-02-16T15:48:36.128Z,10.17
2018-02-16T15:51:03.725Z,10.60
2018-02-16T15:53:31.342Z,12.33
2018-02-16T15:55:58.934Z,7.20
2018-02-16T15:58:26.517Z,11.40
2018-02-16T16:00:54.920Z,14.23
2018-02-16T16:03:22.503Z,11.87
2018-02-16T16:05:50.116Z,12.03
2018-02-16T16:08:17.701Z,8.87
2018-02-16T16:10:45.308Z,11.93
2018-02-16T16:13:12.915Z,14.83
2018-02-16T16:15:40.497Z,7.00
2018-02-16T16:18:08.128Z,11.13
2018-02-16T16:20:35.729Z,12.80
2018-02-16T16:23:03.397Z,16.27
2018-02-16T16:25:30.981Z,18.80
2018-02-16T16:27:59.347Z,14.13
2018-02-16T16:30:26.961Z,12.80
2018-02-16T16:32:54.550Z,14.70
2018-02-16T16:35:22.935Z,25.03
2018-02-16T16:37:50.535Z,16.23
2018-02-16T16:40:18.977Z,29.87
2018-02-16T16:42:46.599Z,20.63
2018-02-16T16:45:14.180Z,11.37
2018-02-16T16:47:41.808Z,9.30
2018-02-16T16:50:09.388Z,15.10
2018-02-16T16:52:36.973Z,7.70
2018-02-16T16:55:04.576Z,12.67
2018-02-16T16:57:32.144Z,13.97
2018-02-16T16:59:59.744Z,12.43
2018-02-16T17:02:27.336Z,11.03
2018-02-16T17:04:55.750Z,15.07
2018-02-16T17:07:23.340Z,9.70
2018-02-16T17:09:50.921Z,9.37
2018-02-16T17:12:18.583Z,12.27
2018-02-16T17:14:46.177Z,10.90
2018-02-16T17:17:13.833Z,11.10
2018-02-16T17:19:41.416Z,10.60
2018-02-16T17:22:09.002Z,12.00
2018-02-16T17:24:39.352Z,11.57
2018-02-16T17:27:06.943Z,16.80
2018-02-16T17:29:34.548Z,8.80
2018-02-16T17:32:02.121Z,18.23
2018-02-16T17:34:29.750Z,11.57
2018-02-16T17:36:57.329Z,11.57
2018-02-16T17:39:24.904Z,11.30
2018-02-16T17:41:52.513Z,10.03
2018-02-16T17:44:20.091Z,13.93
2018-02-16T17:46:47.728Z,12.23
2018-02-16T17:49:15.310Z,11.87
2018-02-16T17:51:42.909Z,10.67
2018-02-16T17:54:10.560Z,11.20
2018-02-16T17:56:38.174Z,11.40
2018-02-16T17:59:05.793Z,17.43
2018-02-16T18:01:34.138Z,11.40
2018-02-16T18:04:02.626Z,10.10
2018-02-16T18:06:30.245Z,10.43
2018-02-16T18:08:57.826Z,21.00
2018-02-16T18:11:25.436Z,21.90
2018-02-16T18:13:53.783Z,19.43
2018-02-16T18:16:21.379Z,21.17
2018-02-16T18:18:49.743Z,13.63
2018-02-16T18:21:18.084Z,16.63
2018-02-16T18:23:46.462Z,25.83
2018-02-16T18:26:14.052Z,17.73
2018-02-16T18:28:41.676Z,19.47
2018-02-16T18:31:09.303Z,29.43
2018-02-16T18:33:36.889Z,30.93
2018-02-16T18:36:04.499Z,15.13
2018-02-16T18:38:32.077Z,18.13
2018-02-16T18:40:59.711Z,14.80
2018-02-16T18:43:28.088Z,21.47
2018-02-16T18:45:55.675Z,21.70
2018-02-16T18:48:24.163Z,21.00
2018-02-16T18:50:51.772Z,12.50
2018-02-16T18:53:19.372Z,20.93
2018-02-16T18:55:47.728Z,18.63
2018-02-16T18:58:15.331Z,14.90
2018-02-16T19:00:42.916Z,15.33
2018-02-16T19:03:10.542Z,19.23
2018-02-16T19:05:38.115Z,21.67
2018-02-16T19:08:05.891Z,17.23
2018-02-16T19:10:33.483Z,17.03
2018-02-16T19:13:01.068Z,19.57
2018-02-16T19:15:29.436Z,15.93
2018-02-16T19:17:57.782Z,21.17
2018-02-16T19:20:25.351Z,19.33
2018-02-16T19:22:53.397Z,16.83
2018-02-16T19:25:21.007Z,17.40
2018-02-16T19:27:49.391Z,16.37
2018-02-16T19:30:18.221Z,16.00
2018-02-16T19:32:45.950Z,19.70
2018-02-16T19:35:14.008Z,14.20
2018-02-16T19:37:41.651Z,19.13
2018-02-16T19:40:09.359Z,18.00
2018-02-16T19:42:37.905Z,17.10
2018-02-16T19:45:06.856Z,19.20
2018-02-16T19:47:34.534Z,20.90
2018-02-16T19:50:02.143Z,15.43
2018-02-16T19:52:29.766Z,18.53
2018-02-16T19:54:57.381Z,27.53
2018-02-16T19:57:25.395Z,18.97
2018-02-16T19:59:53.048Z,16.53
2018-02-16T20:02:20.775Z,17.97
2018-02-16T20:04:49.076Z,23.20
2018-02-16T20:07:17.575Z,15.50
2018-02-16T20:09:45.176Z,22.13
2018-02-16T20:12:12.771Z,16.20
2018-02-16T20:14:40.415Z,15.27
2018-02-16T20:17:08.227Z,19.37
2018-02-16T20:19:36.108Z,26.63
2018-02-16T20:22:04.069Z,17.57
2018-02-16T20:24:31.731Z,24.20
2018-02-16T20:27:00.094Z,21.00
2018-02-16T20:29:27.720Z,20.93
2018-02-16T20:31:55.326Z,22.03
2018-02-16T20:34:23.051Z,22.13
2018-02-16T20:36:51.038Z,21.83
2018-02-16T20:39:18.689Z,21.03
2018-02-16T20:41:46.580Z,34.23
2018-02-16T20:44:14.210Z,19.80
2018-02-16T20:46:41.842Z,26.43
2018-02-16T20:49:09.463Z,24.93
2018-02-16T20:51:37.100Z,21.43
2018-02-16T20:54:04.757Z,19.20
2018-02-16T20:56:33.156Z,16.80
2018-02-16T20:59:00.818Z,20.50
2018-02-16T21:01:28.419Z,21.10
2018-02-16T21:03:56.035Z,18.70
2018-02-16T21:06:23.642Z,18.47
2018-02-16T21:08:51.279Z,14.70
2018-02-16T21:11:19.628Z,19.20
2018-02-16T21:13:47.270Z,17.53
2018-02-16T21:16:14.869Z,14.40
2018-02-16T21:18:43.236Z,19.93
2018-02-16T21:21:12.658Z,17.83
2018-02-16T21:23:41.036Z,15.90
2018-02-16T21:26:09.434Z,18.70
2018-02-16T21:28:37.038Z,19.77
2018-02-16T21:31:04.782Z,17.13
2018-02-16T21:33:32.387Z,17.97
2018-02-16T21:36:01.787Z,17.03
2018-02-16T21:38:29.392Z,20.17
2018-02-16T21:40:56.977Z,21.37
2018-02-16T21:43:24.606Z,17.80
2018-02-16T21:45:52.195Z,22.63
2018-02-16T21:48:19.851Z,22.97
2018-02-16T21:50:47.454Z,23.20
2018-02-16T21:53:15.851Z,17.90
2018-02-16T21:55:43.471Z,19.60
2018-02-16T21:58:11.129Z,26.73
2018-02-16T22:00:38.774Z,25.57
2018-02-16T22:03:06.474Z,24.83
2018-02-16T22:05:36.041Z,20.60
2018-02-16T22:08:03.811Z,32.47
2018-02-16T22:10:31.451Z,20.70
2018-02-16T22:12:59.059Z,19.27
2018-02-16T22:15:26.688Z,21.20
2018-02-16T22:17:54.286Z,15.30
2018-02-16T22:20:22.676Z,25.53
2018-02-16T22:22:50.290Z,22.73
2018-02-16T22:25:17.932Z,18.03
2018-02-16T22:27:45.519Z,22.03
2018-02-16T22:30:13.127Z,18.67
2018-02-16T22:32:40.746Z,20.03
2018-02-16T22:35:08.344Z,17.23
2018-02-16T22:37:35.982Z,16.10
2018-02-16T22:40:03.576Z,20.10
2018-02-16T22:42:31.218Z,19.17
2018-02-16T22:44:59.579Z,16.83
2018-02-16T22:47:27.973Z,16.63
2018-02-16T22:49:55.596Z,20.40
2018-02-16T22:52:23.204Z,18.97
2018-02-16T22:54:50.853Z,49.77
2018-02-16T22:57:19.230Z,46.60
2018-02-16T22:59:47.630Z,23.00
2018-02-16T23:02:15.237Z,20.97
2018-02-16T23:04:42.856Z,23.00
2018-02-16T23:07:10.466Z,29.50
2018-02-16T23:09:38.501Z,27.13
2018-02-16T23:12:06.153Z,23.60
2018-02-16T23:14:34.760Z,24.70
2018-02-16T23:17:02.452Z,28.60
2018-02-16T23:19:30.847Z,23.27
2018-02-16T23:21:59.245Z,23.10
2018-02-16T23:24:26.905Z,19.53
2018-02-16T23:26:54.544Z,22.50
2018-02-16T23:29:22.936Z,23.27
2018-02-16T23:31:50.536Z,23.70
2018-02-16T23:34:18.968Z,18.63
2018-02-16T23:36:46.575Z,22.80
2018-02-16T23:39:14.212Z,24.10
2018-02-16T23:41:41.800Z,17.63
2018-02-16T23:44:09.396Z,22.73
2018-02-16T23:46:37.004Z,21.83
2018-02-16T23:49:05.371Z,23.70
2018-02-16T23:51:32.990Z,29.10
2018-02-16T23:54:00.600Z,24.80
2018-02-16T23:56:28.991Z,26.13
2018-02-16T23:58:57.350Z,22.07
